createdAt,value
2023-04-29T00:01:27.705Z,100414.97
2023-04-29T00:04:30.628Z,100413.16
2023-04-29T00:07:32.936Z,100413.16
2023-04-29T00:10:35.605Z,100409.03
2023-04-29T00:13:40.829Z,100406.37
2023-04-29T00:16:43.549Z,100403.50
2023-04-29T00:19:45.863Z,100409.66
2023-04-29T00:22:49.469Z,100395.66
2023-04-29T00:25:53.426Z,100399.41
2023-04-29T00:28:55.852Z,100396.75
2023-04-29T00:31:58.113Z,100394.97
2023-04-29T00:35:00.604Z,100390.75
2023-04-29T00:38:02.771Z,100384.81
2023-04-29T00:41:05.944Z,100392.06
2023-04-29T00:44:08.408Z,100385.19
2023-04-29T00:47:11.659Z,100393.47
2023-04-29T00:50:14.208Z,100391.19
2023-04-29T00:53:17.319Z,100403.50
2023-04-29T00:56:21.030Z,100402.28
2023-04-29T00:59:24.100Z,100403.06
2023-04-29T01:02:27.014Z,100398.81
2023-04-29T01:05:29.632Z,100401.22
2023-04-29T01:09:01.062Z,100398.94
2023-04-29T01:12:29.617Z,100395.69
2023-04-29T01:15:44.420Z,100399.31
2023-04-29T01:18:52.440Z,100396.53
2023-04-29T01:21:55.033Z,100402.44
2023-04-29T01:24:57.603Z,100400.16
2023-04-29T01:28:38.221Z,100394.56
2023-04-29T01:31:49.243Z,100396.50
2023-04-29T01:34:52.866Z,100393.28
2023-04-29T01:38:18.579Z,100401.22
2023-04-29T01:41:43.301Z,100396.66
2023-04-29T01:44:48.947Z,100390.13
2023-04-29T01:47:56.299Z,100384.22
2023-04-29T01:50:58.972Z,100380.72
2023-04-29T01:54:01.335Z,100383.00
2023-04-29T01:57:04.448Z,100379.87
2023-04-29T02:00:09.009Z,100386.16
2023-04-29T02:03:15.183Z,100387.47
2023-04-29T02:06:19.665Z,100391.47
2023-04-29T02:09:22.667Z,100390.13
2023-04-29T02:12:25.838Z,100384.94
2023-04-29T02:15:29.350Z,100378.63
2023-04-29T02:18:32.189Z,100381.06
2023-04-29T02:21:35.271Z,100392.31
2023-04-29T02:24:38.208Z,100382.03
2023-04-29T02:27:42.705Z,100384.09
2023-04-29T02:30:45.197Z,100390.72
2023-04-29T02:33:47.471Z,100383.81
2023-04-29T02:36:50.323Z,100381.22
2023-04-29T02:39:55.966Z,100385.78
2023-04-29T02:42:58.453Z,100377.44
2023-04-29T02:46:03.365Z,100377.31
2023-04-29T02:49:05.874Z,100378.63
2023-04-29T02:52:08.401Z,100371.03
2023-04-29T02:55:10.933Z,100372.53
2023-04-29T02:58:13.057Z,100362.97
2023-04-29T03:01:15.570Z,100361.41
2023-04-29T03:04:17.974Z,100352.25
2023-04-29T03:07:20.877Z,100371.19
2023-04-29T03:10:23.199Z,100370.34
2023-04-29T03:13:25.772Z,100362.87
2023-04-29T03:16:29.237Z,100360.91
2023-04-29T03:19:31.832Z,100367.44
2023-04-29T03:22:34.962Z,100361.78
2023-04-29T03:25:37.633Z,100364.19
2023-04-29T03:28:39.844Z,100359.84
2023-04-29T03:31:42.480Z,100362.25
2023-04-29T03:34:45.021Z,100363.72
2023-04-29T03:37:48.580Z,100364.91
2023-04-29T03:40:51.087Z,100376.25
2023-04-29T03:43:54.848Z,100375.66
2023-04-29T03:46:57.041Z,100372.03
2023-04-29T03:49:59.590Z,100377.09
2023-04-29T03:53:01.880Z,100381.19
2023-04-29T03:56:04.768Z,100386.28
2023-04-29T03:59:07.400Z,100385.91
2023-04-29T04:02:10.305Z,100386.03
2023-04-29T04:05:13.069Z,100397.09
2023-04-29T04:08:16.483Z,100388.63
2023-04-29T04:11:20.716Z,100397.81
2023-04-29T04:14:23.292Z,100400.94
2023-04-29T04:17:25.958Z,100405.78
2023-04-29T04:20:28.071Z,100400.72
2023-04-29T04:23:30.606Z,100409.25
2023-04-29T04:26:33.607Z,100401.41
2023-04-29T04:29:36.700Z,100405.53
2023-04-29T04:32:40.109Z,100410.97
2023-04-29T04:35:43.330Z,100408.28
2023-04-29T04:38:45.869Z,100404.31
2023-04-29T04:41:48.459Z,100417.81
2023-04-29T04:44:50.620Z,100411.44
2023-04-29T04:47:54.946Z,100407.47
2023-04-29T04:50:57.615Z,100401.09
2023-04-29T04:54:00.123Z,100397.38
2023-04-29T04:57:05.990Z,100400.16
2023-04-29T05:00:09.179Z,100406.19
2023-04-29T05:03:11.646Z,100402.66
2023-04-29T05:06:14.675Z,100394.22
2023-04-29T05:09:17.299Z,100393.63
2023-04-29T05:12:20.008Z,100391.44
2023-04-29T05:15:22.243Z,100390.91
2023-04-29T05:18:25.428Z,100392.56
2023-04-29T05:21:27.603Z,100392.59
2023-04-29T05:24:30.738Z,100389.63
2023-04-29T05:27:32.977Z,100390.59
2023-04-29T05:30:35.824Z,100393.25
2023-04-29T05:33:38.037Z,100400.97
2023-04-29T05:36:40.634Z,100395.66
2023-04-29T05:39:42.829Z,100398.53
2023-04-29T05:42:47.099Z,100395.03
2023-04-29T05:45:49.518Z,100405.56
2023-04-29T05:48:52.070Z,100411.22
2023-04-29T05:51:54.480Z,100413.87
2023-04-29T05:54:57.811Z,100406.06
2023-04-29T05:58:00.197Z,100409.91
2023-04-29T06:01:03.216Z,100414.03
2023-04-29T06:04:06.139Z,100416.94
2023-04-29T06:07:09.389Z,100409.19
2023-04-29T06:10:13.413Z,100405.31
2023-04-29T06:13:16.240Z,100410.37
2023-04-29T06:16:18.842Z,100409.53
2023-04-29T06:19:21.332Z,100409.31
2023-04-29T06:22:23.971Z,100411.50
2023-04-29T06:25:26.332Z,100417.38
2023-04-29T06:28:29.964Z,100422.91
2023-04-29T06:31:32.446Z,100419.31
2023-04-29T06:34:36.076Z,100428.38
2023-04-29T06:37:42.589Z,100433.94
2023-04-29T06:40:45.765Z,100421.09
2023-04-29T06:43:49.036Z,100420.41
2023-04-29T06:46:51.683Z,100416.44
2023-04-29T06:49:54.866Z,100413.81
2023-04-29T06:52:57.650Z,100416.00
2023-04-29T06:55:59.804Z,100418.28
2023-04-29T06:59:02.321Z,100422.53
2023-04-29T07:02:04.506Z,100422.41
2023-04-29T07:05:07.605Z,100419.31
2023-04-29T07:08:11.170Z,100428.84
2023-04-29T07:11:13.803Z,100424.00
2023-04-29T07:14:16.160Z,100422.84
2023-04-29T07:17:18.942Z,100418.88
2023-04-29T07:20:22.656Z,100420.59
2023-04-29T07:23:25.062Z,100422.59
2023-04-29T07:26:27.278Z,100422.53
2023-04-29T07:29:29.803Z,100415.78
2023-04-29T07:32:32.875Z,100424.44
2023-04-29T07:35:37.955Z,100420.34
2023-04-29T07:38:40.300Z,100411.78
2023-04-29T07:41:42.784Z,100422.72
2023-04-29T07:44:47.905Z,100421.31
2023-04-29T07:47:50.381Z,100410.09
2023-04-29T07:50:52.628Z,100410.75
2023-04-29T07:53:55.073Z,100414.84
2023-04-29T07:57:01.484Z,100424.59
2023-04-29T08:00:04.376Z,100432.78
2023-04-29T08:03:16.689Z,100435.34
2023-04-29T08:06:22.053Z,100440.31
2023-04-29T08:09:24.197Z,100436.94
2023-04-29T08:12:26.617Z,100440.00
2023-04-29T08:15:29.505Z,100439.44
2023-04-29T08:18:31.975Z,100434.69
2023-04-29T08:21:34.861Z,100439.72
2023-04-29T08:24:37.659Z,100438.47
2023-04-29T08:27:39.915Z,100437.91
2023-04-29T08:30:42.531Z,100445.78
2023-04-29T08:33:44.683Z,100440.84
2023-04-29T08:36:47.087Z,100440.31
2023-04-29T08:39:49.296Z,100439.44
2023-04-29T08:42:53.530Z,100438.72
2023-04-29T08:45:59.107Z,100440.44
2023-04-29T08:49:04.100Z,100440.28
2023-04-29T08:52:06.431Z,100438.59
2023-04-29T08:55:09.255Z,100434.34
2023-04-29T08:58:12.877Z,100440.66
2023-04-29T09:01:15.468Z,100445.50
2023-04-29T09:04:41.838Z,100443.53
2023-04-29T09:07:45.976Z,100432.00
2023-04-29T09:10:48.539Z,100447.31
2023-04-29T09:13:50.932Z,100443.22
2023-04-29T09:16:53.210Z,100449.75
2023-04-29T09:19:57.075Z,100447.84
2023-04-29T09:23:04.133Z,100451.22
2023-04-29T09:26:06.591Z,100453.72
2023-04-29T09:29:16.292Z,100443.38
2023-04-29T09:32:22.715Z,100444.22
2023-04-29T09:35:27.168Z,100443.47
2023-04-29T09:38:29.609Z,100441.56
2023-04-29T09:41:32.268Z,100446.16
2023-04-29T09:44:38.283Z,100438.78
2023-04-29T09:47:40.609Z,100438.97
2023-04-29T09:50:45.083Z,100442.09
2023-04-29T09:53:47.233Z,100444.50
2023-04-29T09:56:52.092Z,100437.50
2023-04-29T09:59:54.208Z,100434.31
2023-04-29T10:02:58.679Z,100431.09
2023-04-29T10:06:03.657Z,100429.94
2023-04-29T10:09:07.251Z,100429.97
2023-04-29T10:12:10.050Z,100422.38
2023-04-29T10:15:12.544Z,100423.37
2023-04-29T10:18:21.310Z,100422.41
2023-04-29T10:21:29.425Z,100419.53
2023-04-29T10:24:34.471Z,100422.81
2023-04-29T10:27:37.667Z,100419.09
2023-04-29T10:30:43.720Z,100419.91
2023-04-29T10:33:47.815Z,100420.66
2023-04-29T10:36:51.059Z,100419.94
2023-04-29T10:40:05.019Z,100411.38
2023-04-29T10:43:08.285Z,100405.28
2023-04-29T10:46:16.495Z,100397.84
2023-04-29T10:49:18.982Z,100395.81
2023-04-29T10:52:21.367Z,100390.19
2023-04-29T10:55:24.844Z,100388.12
2023-04-29T10:58:44.013Z,100379.84
2023-04-29T11:01:46.580Z,100378.75
2023-04-29T11:05:07.903Z,100370.16
2023-04-29T11:08:16.472Z,100365.19
2023-04-29T11:11:18.653Z,100351.44
2023-04-29T11:14:24.777Z,100347.09
2023-04-29T11:17:28.328Z,100348.38
2023-04-29T11:20:30.984Z,100345.22
2023-04-29T11:23:45.134Z,100339.59
2023-04-29T11:26:48.928Z,100342.53
2023-04-29T11:29:58.297Z,100337.97
2023-04-29T11:33:01.335Z,100337.34
2023-04-29T11:36:03.946Z,100337.16
2023-04-29T11:39:06.653Z,100334.09
2023-04-29T11:42:08.797Z,100337.34
2023-04-29T11:45:12.127Z,100342.66
2023-04-29T11:48:24.740Z,100344.94
2023-04-29T11:51:28.606Z,100336.13
2023-04-29T11:54:31.026Z,100341.72
2023-04-29T11:57:33.488Z,100334.50
2023-04-29T12:00:36.115Z,100336.22
2023-04-29T12:03:38.691Z,100336.25
2023-04-29T12:06:42.040Z,100332.72
2023-04-29T12:09:45.741Z,100332.56
2023-04-29T12:12:49.151Z,100328.47
2023-04-29T12:15:52.663Z,100331.84
2023-04-29T12:18:55.868Z,100332.56
2023-04-29T12:22:03.246Z,100310.84
2023-04-29T12:25:07.316Z,100309.88
2023-04-29T12:28:13.470Z,100315.25
2023-04-29T12:31:16.150Z,100312.34
2023-04-29T12:34:25.860Z,100311.19
2023-04-29T12:37:28.170Z,100308.69
2023-04-29T12:40:32.444Z,100311.03
2023-04-29T12:43:34.929Z,100308.56
2023-04-29T12:46:39.258Z,100303.53
2023-04-29T12:49:45.535Z,100306.66
2023-04-29T12:52:49.220Z,100296.72
2023-04-29T12:55:52.274Z,100298.25
2023-04-29T12:58:54.786Z,100293.34
2023-04-29T13:01:57.198Z,100279.19
2023-04-29T13:04:59.950Z,100283.88
2023-04-29T13:08:02.884Z,100279.25
2023-04-29T13:11:05.758Z,100280.50
2023-04-29T13:14:08.030Z,100271.28
2023-04-29T13:17:11.141Z,100274.00
2023-04-29T13:20:15.287Z,100273.41
2023-04-29T13:23:17.860Z,100268.81
2023-04-29T13:26:20.069Z,100265.81
2023-04-29T13:29:22.659Z,100249.69
2023-04-29T13:32:25.302Z,100253.41
2023-04-29T13:35:27.795Z,100243.13
2023-04-29T13:38:30.967Z,100246.09
2023-04-29T13:41:35.597Z,100241.94
2023-04-29T13:44:51.848Z,100243.47
2023-04-29T13:48:07.338Z,100239.63
2023-04-29T13:58:20.639Z,100225.69
2023-04-29T14:03:56.071Z,100231.50
2023-04-29T14:06:58.298Z,100233.37
2023-04-29T14:10:01.064Z,100234.84
2023-04-29T14:13:03.222Z,100230.59
2023-04-29T14:16:06.982Z,100233.31
2023-04-29T14:19:09.465Z,100232.94
2023-04-29T14:22:12.063Z,100232.28
2023-04-29T14:25:14.320Z,100223.34
2023-04-29T14:28:16.751Z,100222.34
2023-04-29T14:31:18.963Z,100219.25
2023-04-29T14:34:21.507Z,100215.59
2023-04-29T14:37:23.701Z,100220.03
2023-04-29T14:40:26.196Z,100206.91
2023-04-29T14:43:28.972Z,100206.81
2023-04-29T14:46:32.363Z,100206.59
2023-04-29T14:49:34.599Z,100203.88
2023-04-29T14:52:37.113Z,100206.22
2023-04-29T14:55:39.236Z,100211.06
2023-04-29T14:58:41.634Z,100209.28
2023-04-29T15:01:44.068Z,100213.13
2023-04-29T15:04:46.946Z,100214.19
2023-04-29T15:07:49.149Z,100221.59
2023-04-29T15:10:51.681Z,100219.75
2023-04-29T15:13:53.792Z,100220.16
2023-04-29T15:16:56.545Z,100215.22
2023-04-29T15:19:58.908Z,100212.44
2023-04-29T15:23:01.627Z,100204.72
2023-04-29T15:26:03.969Z,100206.94
2023-04-29T15:29:06.585Z,100208.00
2023-04-29T15:32:10.560Z,100210.88
2023-04-29T15:35:13.110Z,100210.25
2023-04-29T15:38:15.295Z,100208.34
2023-04-29T15:41:17.853Z,100207.56
2023-04-29T15:44:19.987Z,100200.81
2023-04-29T15:47:22.728Z,100200.97
2023-04-29T15:50:24.967Z,100206.06
2023-04-29T15:53:27.363Z,100198.25
2023-04-29T15:56:34.003Z,100199.53
2023-04-29T15:59:36.523Z,100188.47
2023-04-29T16:02:38.926Z,100186.75
2023-04-29T16:05:41.492Z,100191.25
2023-04-29T16:08:43.660Z,100186.84
2023-04-29T16:11:46.258Z,100194.75
2023-04-29T16:14:48.468Z,100196.75
2023-04-29T16:17:51.881Z,100193.16
2023-04-29T16:20:54.215Z,100202.44
2023-04-29T16:23:56.695Z,100204.28
2023-04-29T16:26:59.256Z,100196.91
2023-04-29T16:30:02.208Z,100200.09
2023-04-29T16:33:06.162Z,100194.94
2023-04-29T16:36:08.630Z,100197.97
2023-04-29T16:39:10.859Z,100193.44
2023-04-29T16:42:13.556Z,100184.22
2023-04-29T16:45:15.830Z,100201.59
2023-04-29T16:48:18.419Z,100198.78
2023-04-29T16:51:20.513Z,100193.06
2023-04-29T16:54:23.511Z,100200.09
2023-04-29T16:57:26.557Z,100186.03
2023-04-29T17:00:29.077Z,100189.19
2023-04-29T17:03:31.298Z,100189.53
2023-04-29T17:06:34.725Z,100197.97
2023-04-29T17:09:36.990Z,100203.31
2023-04-29T17:12:39.513Z,100201.44
2023-04-29T17:15:41.832Z,100207.97
2023-04-29T17:18:44.328Z,100212.59
2023-04-29T17:21:46.825Z,100212.22
2023-04-29T17:24:50.776Z,100219.03
2023-04-29T17:27:52.975Z,100218.62
2023-04-29T17:30:59.654Z,100215.44
2023-04-29T17:34:18.339Z,100221.53
2023-04-29T17:37:25.668Z,100223.13
2023-04-29T17:40:27.952Z,100224.81
2023-04-29T17:43:33.213Z,100219.44
2023-04-29T17:46:36.660Z,100226.78
2023-04-29T17:49:39.176Z,100224.97
2023-04-29T17:52:41.672Z,100234.31
2023-04-29T17:55:44.868Z,100244.94
2023-04-29T17:58:47.438Z,100238.03
2023-04-29T18:01:50.036Z,100244.59
2023-04-29T18:04:52.494Z,100241.94
2023-04-29T18:07:54.734Z,100240.63
2023-04-29T18:10:57.184Z,100245.72
2023-04-29T18:13:59.437Z,100251.13
2023-04-29T18:17:02.038Z,100254.09
2023-04-29T18:20:06.162Z,100253.97
2023-04-29T18:23:08.647Z,100253.87
2023-04-29T18:26:11.041Z,100258.63
2023-04-29T18:29:13.489Z,100261.34
2023-04-29T18:32:15.714Z,100268.44
2023-04-29T18:35:18.139Z,100279.78
2023-04-29T18:38:20.264Z,100282.97
2023-04-29T18:41:22.732Z,100283.81
2023-04-29T18:44:26.184Z,100289.03
2023-04-29T18:47:29.179Z,100292.88
2023-04-29T18:50:31.740Z,100291.56
2023-04-29T18:53:34.454Z,100294.03
2023-04-29T18:56:38.813Z,100296.41
2023-04-29T18:59:42.580Z,100296.44
2023-04-29T19:02:45.043Z,100302.78
2023-04-29T19:05:48.203Z,100306.44
2023-04-29T19:08:50.339Z,100309.88
2023-04-29T19:11:52.819Z,100317.56
2023-04-29T19:14:54.966Z,100313.50
2023-04-29T19:17:57.523Z,100312.22
2023-04-29T19:21:00.327Z,100307.47
2023-04-29T19:24:02.826Z,100316.44
2023-04-29T19:27:06.110Z,100315.31
2023-04-29T19:30:08.655Z,100309.84
2023-04-29T19:33:10.791Z,100313.34
2023-04-29T19:36:14.248Z,100313.50
2023-04-29T19:39:17.016Z,100315.88
2023-04-29T19:42:19.529Z,100322.06
2023-04-29T19:45:21.746Z,100321.91
2023-04-29T19:48:24.160Z,100313.91
2023-04-29T19:51:26.754Z,100316.31
2023-04-29T19:54:29.477Z,100321.06
2023-04-29T19:57:32.023Z,100320.09
2023-04-29T20:00:34.810Z,100325.44
2023-04-29T20:03:39.316Z,100331.75
2023-04-29T20:06:41.832Z,100328.09
2023-04-29T20:09:45.671Z,100328.25
2023-04-29T20:12:47.819Z,100329.25
2023-04-29T20:15:50.233Z,100331.78
2023-04-29T20:18:52.367Z,100327.28
2023-04-29T20:21:54.854Z,100337.94
2023-04-29T20:24:57.053Z,100332.44
2023-04-29T20:27:59.474Z,100321.91
2023-04-29T20:31:01.705Z,100326.28
2023-04-29T20:34:04.212Z,100330.91
2023-04-29T20:37:07.401Z,100328.50
2023-04-29T20:40:10.383Z,100319.66
2023-04-29T20:43:12.727Z,100322.75
2023-04-29T20:46:16.300Z,100318.13
2023-04-29T20:49:19.231Z,100329.59
2023-04-29T20:52:21.677Z,100328.19
2023-04-29T20:55:24.056Z,100335.22
2023-04-29T20:58:26.560Z,100341.66
2023-04-29T21:01:29.224Z,100343.62
2023-04-29T21:04:31.812Z,100343.91
2023-04-29T21:07:33.997Z,100348.97
2023-04-29T21:10:36.452Z,100345.03
2023-04-29T21:13:38.687Z,100341.53
2023-04-29T21:16:41.384Z,100348.81
2023-04-29T21:19:43.543Z,100352.75
2023-04-29T21:22:46.074Z,100350.78
2023-04-29T21:25:48.563Z,100346.91
2023-04-29T21:28:51.175Z,100348.00
2023-04-29T21:31:53.400Z,100352.91
2023-04-29T21:34:55.891Z,100346.72
2023-04-29T21:37:58.013Z,100353.31
2023-04-29T21:41:00.918Z,100351.22
2023-04-29T21:44:04.491Z,100353.06
2023-04-29T21:47:08.081Z,100355.59
2023-04-29T21:50:11.293Z,100357.41
2023-04-29T21:53:16.445Z,100351.38
2023-04-29T21:56:19.378Z,100354.88
2023-04-29T21:59:21.840Z,100363.13
2023-04-29T22:02:25.625Z,100362.87
2023-04-29T22:05:28.144Z,100361.59
2023-04-29T22:08:30.387Z,100363.56
2023-04-29T22:11:33.215Z,100357.09
2023-04-29T22:14:35.402Z,100354.56
2023-04-29T22:17:37.905Z,100353.16
2023-04-29T22:20:40.157Z,100350.34
2023-04-29T22:23:42.845Z,100350.59
2023-04-29T22:26:45.027Z,100350.19
2023-04-29T22:29:47.633Z,100352.28
2023-04-29T22:32:49.839Z,100356.63
2023-04-29T22:35:52.387Z,100357.62
2023-04-29T22:38:54.541Z,100360.59
2023-04-29T22:41:57.030Z,100353.97
2023-04-29T22:44:59.180Z,100355.53
2023-04-29T22:48:01.659Z,100355.34
2023-04-29T22:51:03.938Z,100359.31
2023-04-29T22:54:07.607Z,100363.97
2023-04-29T22:57:09.789Z,100366.59
2023-04-29T23:00:13.040Z,100361.34
2023-04-29T23:03:15.245Z,100364.28
2023-04-29T23:06:17.770Z,100360.91
2023-04-29T23:09:19.906Z,100363.84
2023-04-29T23:12:22.542Z,100361.88
2023-04-29T23:15:26.194Z,100372.44
2023-04-29T23:18:28.599Z,100360.94
2023-04-29T23:21:31.256Z,100368.38
2023-04-29T23:24:36.571Z,100362.59
2023-04-29T23:27:38.722Z,100358.97
2023-04-29T23:30:41.161Z,100360.91
2023-04-29T23:33:43.460Z,100354.47
2023-04-29T23:36:45.920Z,100356.44
2023-04-29T23:39:48.109Z,100355.44
2023-04-29T23:42:50.586Z,100356.13
2023-04-29T23:45:52.969Z,100346.34
2023-04-29T23:48:55.538Z,100352.25
2023-04-29T23:51:57.677Z,100345.59
2023-04-29T23:55:00.220Z,100345.16
2023-04-29T23:58:02.381Z,100349.06
